OING  Gorgan Airport

Add Bookmark

Gorgan, Iran

Status IATA
Operational GBT
Latitude Longitude
36° 54' 33" N 54° 24' 4" E
36.909401 54.401299
Local (DST + 5) UTC (GMT + 4)
Feb 28, 2015 10:17 Feb 28, 2015 06:47
Sunrise-Sunset Local UTC
Begin Civil Twilight 05:57 02:27
Sunrise 06:23 02:53
Sunset 05:46 14:16
End Civil Twilight 06:12 14:42

Current Weather

METAR Observed VFR
OING 280600Z 06004KT CAVOK 08/04 Q1024 Sat, Feb 28, 2015 @ 06:00 UTC
(47 Minutes ago)
Visual Flight Rules
Wind Visibility Clouds Conditions
060° at 4 knots (7 kph) 10 km or more
  • Clear skies
  • No significant weather
Temperatures Readings Precipitation
Current Temp 8°C (46°F)
Dewpoint 4°C (39°F)
Humidity 76%
Altimeter 30.24"Hg
Sea Level Pressure 1024mb
Field Elevation 508.53'
None Recorded

Forecast Weather

TAF
TAF OING 280530Z 2806/2815 03004MPS 7000 FEW025
From To
Sat, Feb 28, 2015 @ 06:00 UTC Sat, Feb 28, 2015 @ 15:00 UTC
Wind Visibility Clouds Conditions
030° at 8 knots (15 kph) 7000 meters
  • Few at 2,500' AGL
  • No significant weather

24 Hour Weather History

Loading
-

24 Hour Weather Graphs

Loading
-

CheckWX.com is intended as a tool to help pilots better visualize weather data. It is not intended as a substitute for an official weather briefing obtained from a Flight Service Station. CheckWX.com does not meet the FAA requirements for an official pre-flight weather briefing. Therefore, it's important that pilots still call and obtain an official FSS pre-flight weather briefing.